Time;durP1;ratioP1;P1;durP2;ratioP2;P2;SDS_P1;SDS_P2;PMS_P1;PMS_P2;Temp;Humidity;BMP_temperature;BMP_pressure;BME280_temperature;BME280_humidity;BME280_pressure;Samples;Min_cycle;Max_cycle;Signal;HPM_P1;HPM_P2
2022/04/20 00:01:35;;;;;;;;;;;;;;;;;;5111809;28;19908;-52
2022/04/20 00:04:02;;;;;;;;;;;;;;;;;;5112220;28;19920;-54
2022/04/20 00:06:30;;;;;;;;;;;;;;;;;;5112474;28;19949;-47
2022/04/20 00:08:56;;;;;;;;;;;;;;;;;;5112795;28;19998;-54
2022/04/20 00:11:23;;;;;;;;;;;;;;;;;;5110731;28;19957;-42
2022/04/20 00:13:49;;;;;;;;;;;;;;;;;;5091741;28;19950;-53
2022/04/20 00:16:16;;;;;;;;;;;;;;;;;;5093224;28;19954;-47
2022/04/20 00:18:42;;;;;;;;;;;;;;;;;;5093281;28;19911;-56
2022/04/20 00:21:09;;;;;;;;;;;;;;;;;;5093118;28;19915;-55
2022/04/20 00:23:35;;;;;;;;;;;;;;;;;;5093039;28;19916;-55
2022/04/20 00:26:02;;;;;;;;;;;;;;;;;;5093302;28;19912;-55
2022/04/20 00:28:29;;;;;;;;;;;;;;;;;;5093531;28;19908;-49
2022/04/20 00:30:55;;;;;;;;;;;;;;;;;;5093271;28;19915;-52
2022/04/20 00:33:22;;;;;;;;;;;;;;;;;;5093191;28;20274;-50
2022/04/20 00:35:50;;;;;;;;;;;;;;;;;;5093629;28;19908;-54
2022/04/20 00:38:17;;;;;;;;;;;;;;;;;;5093625;28;19919;-54
2022/04/20 00:40:43;;;;;;;;;;;;;;;;;;5097558;28;19951;-51
2022/04/20 00:43:10;;;;;;;;;;;;;;;;;;5095085;28;19912;-52
2022/04/20 00:45:36;;;;;;;;;;;;;;;;;;5094162;28;19970;-45
2022/04/20 00:48:03;;;;;;;;;;;;;;;;;;5095521;28;19943;-49
2022/04/20 00:50:29;;;;;;;;;;;;;;;;;;5095463;28;19912;-57
2022/04/20 00:52:56;;;;;;;;;;;;;;;;;;5096171;28;19908;-52
2022/04/20 00:55:22;;;;;;;;;;;;;;;;;;5096238;28;20307;-50
2022/04/20 00:57:49;;;;;;;;;;;;;;;;;;5115805;28;19912;-50
2022/04/20 01:00:15;;;;;;;;;;;;;;;;;;5115961;28;19919;-50
2022/04/20 01:02:41;;;;;;;;;;;;;;;;;;5109659;28;19923;-52
2022/04/20 01:05:08;;;;;;;;;;;;;;;;;;5095312;28;19927;-53
2022/04/20 01:07:35;;;;;;;;;;;;;;;;;;5095671;28;19916;-54
2022/04/20 01:10:02;;;;;;;;;;;;;;;;;;5095336;28;19908;-53
2022/04/20 01:12:28;;;;;;;;;;;;;;;;;;5095363;28;20367;-51
2022/04/20 01:14:55;;;;;;;;;;;;;;;;;;5095540;28;19908;-53
2022/04/20 01:17:21;;;;;;;;;;;;;;;;;;5095300;28;19908;-54
2022/04/20 01:19:47;;;;;;;;;;;;;;;;;;5095453;28;19908;-50
2022/04/20 01:22:14;;;;;;;;;;;;;;;;;;5095535;28;20359;-52
2022/04/20 01:24:41;;;;;;;;;;;;;;;;;;5094894;28;19916;-55
2022/04/20 01:27:08;;;;;;;;;;;;;;;;;;5094930;28;20349;-45
2022/04/20 01:29:34;;;;;;;;;;;;;;;;;;5104473;28;20322;-51
2022/04/20 01:32:01;;;;;;;;;;;;;;;;;;5115704;28;19908;-50
2022/04/20 01:34:27;;;;;;;;;;;;;;;;;;5115552;28;19930;-53
2022/04/20 01:36:54;;;;;;;;;;;;;;;;;;5115170;28;19907;-51
2022/04/20 01:39:20;;;;;;;;;;;;;;;;;;5115431;28;19915;-49
2022/04/20 01:41:46;;;;;;;;;;;;;;;;;;5115114;28;20006;-53
2022/04/20 01:44:13;;;;;;;;;;;;;;;;;;5114875;28;19922;-55
2022/04/20 01:46:39;;;;;;;;;;;;;;;;;;5115348;28;19914;-54
2022/04/20 01:49:06;;;;;;;;;;;;;;;;;;5114857;28;20286;-47
2022/04/20 01:51:50;;;;;;;;;;;;;;;;;;5115016;28;20359;-46
2022/04/20 01:54:17;;;;;;;;;;;;;;;;;;5110839;28;20000;-51
2022/04/20 01:56:45;;;;;;;;;;;;;;;;;;5094294;28;19926;-56
2022/04/20 01:59:12;;;;;;;;;;;;;;;;;;5094145;28;20005;-54
2022/04/20 02:04:23;;;;;;;;;;;;;;;;;;5094108;28;19927;-52
2022/04/20 02:06:49;;;;;;;;;;;;;;;;;;5094349;28;20011;-51
2022/04/20 02:09:15;;;;;;;;;;;;;;;;;;5094037;28;20049;-53
2022/04/20 02:11:42;;;;;;;;;;;;;;;;;;5093989;28;19911;-53
2022/04/20 02:14:08;;;;;;;;;;;;;;;;;;5094103;28;19908;-57
2022/04/20 02:16:36;;;;;;;;;;;;;;;;;;5094342;28;19911;-57
2022/04/20 02:19:02;;;;;;;;;;;;;;;;;;5094157;28;20370;-48
2022/04/20 02:21:28;;;;;;;;;;;;;;;;;;5112126;28;20259;-52
2022/04/20 02:23:55;;;;;;;;;;;;;;;;;;5114710;28;19923;-55
2022/04/20 02:26:21;;;;;;;;;;;;;;;;;;5114763;28;20027;-52
2022/04/20 02:28:48;;;;;;;;;;;;;;;;;;5113436;28;19998;-57
2022/04/20 02:31:15;;;;;;;;;;;;;;;;;;5113812;28;19908;-49
2022/04/20 02:33:41;;;;;;;;;;;;;;;;;;5114214;28;20362;-55
2022/04/20 02:36:07;;;;;;;;;;;;;;;;;;5113457;28;20277;-54
2022/04/20 02:38:34;;;;;;;;;;;;;;;;;;5114169;27;19914;-49
2022/04/20 02:41:00;;;;;;;;;;;;;;;;;;5113987;28;19907;-48
2022/04/20 02:43:27;;;;;;;;;;;;;;;;;;5113460;28;19927;-50
2022/04/20 02:45:53;;;;;;;;;;;;;;;;;;5113241;28;19908;-51
2022/04/20 02:48:20;;;;;;;;;;;;;;;;;;5098395;28;19922;-47
2022/04/20 02:50:46;;;;;;;;;;;;;;;;;;5093403;28;19909;-56
2022/04/20 02:53:13;;;;;;;;;;;;;;;;;;5093288;28;19904;-48
2022/04/20 02:55:39;;;;;;;;;;;;;;;;;;5108001;28;19943;-55
2022/04/20 02:58:06;;;;;;;;;;;;;;;;;;5114000;28;20354;-51
2022/04/20 03:00:32;;;;;;;;;;;;;;;;;;5112378;28;20345;-54
2022/04/20 03:02:58;;;;;;;;;;;;;;;;;;5092804;28;19916;-52
2022/04/20 03:05:25;;;;;;;;;;;;;;;;;;5093972;28;19927;-50
2022/04/20 03:07:52;;;;;;;;;;;;;;;;;;5094026;28;19960;-53
2022/04/20 03:10:18;;;;;;;;;;;;;;;;;;5092631;28;19916;-57
2022/04/20 03:12:45;;;;;;;;;;;;;;;;;;5093574;28;19905;-53
2022/04/20 03:15:11;;;;;;;;;;;;;;;;;;5093326;28;19908;-48
2022/04/20 03:17:38;;;;;;;;;;;;;;;;;;5092090;28;19904;-49
2022/04/20 03:20:04;;;;;;;;;;;;;;;;;;5093409;28;19915;-52
2022/04/20 03:22:31;;;;;;;;;;;;;;;;;;5093276;28;19905;-46
2022/04/20 03:24:57;;;;;;;;;;;;;;;;;;5092479;28;19950;-51
2022/04/20 03:27:24;;;;;;;;;;;;;;;;;;5092749;28;20266;-57
2022/04/20 03:29:50;;;;;;;;;;;;;;;;;;5092943;28;19908;-53
2022/04/20 03:32:17;;;;;;;;;;;;;;;;;;5093010;28;19912;-50
2022/04/20 03:34:43;;;;;;;;;;;;;;;;;;5093248;28;19915;-49
2022/04/20 03:37:10;;;;;;;;;;;;;;;;;;5092521;28;19917;-54
2022/04/20 03:39:37;;;;;;;;;;;;;;;;;;5092085;28;19919;-49
2022/04/20 03:42:03;;;;;;;;;;;;;;;;;;5093238;28;19909;-48
2022/04/20 03:44:30;;;;;;;;;;;;;;;;;;5092484;28;20386;-52
2022/04/20 03:46:56;;;;;;;;;;;;;;;;;;5092790;28;20384;-47
2022/04/20 03:49:23;;;;;;;;;;;;;;;;;;5092286;28;20394;-56
2022/04/20 03:51:49;;;;;;;;;;;;;;;;;;5092330;28;19915;-50
2022/04/20 03:54:16;;;;;;;;;;;;;;;;;;5092826;28;19951;-51
2022/04/20 03:59:27;;;;;;;;;;;;;;;;;;5092197;28;20428;-52
2022/04/20 04:01:53;;;;;;;;;;;;;;;;;;5092667;28;19908;-50
2022/04/20 04:04:20;;;;;;;;;;;;;;;;;;5107105;28;20006;-53
2022/04/20 04:06:47;;;;;;;;;;;;;;;;;;5112916;28;19915;-47
2022/04/20 04:09:13;;;;;;;;;;;;;;;;;;5112756;28;19908;-46
2022/04/20 04:11:39;;;;;;;;;;;;;;;;;;5112376;28;19908;-55
2022/04/20 04:14:06;;;;;;;;;;;;;;;;;;5114238;28;19908;-49
2022/04/20 04:16:39;;;;;;;;;;;;;;;;;;5116700;28;19904;-51
2022/04/20 04:19:05;;;;;;;;;;;;;;;;;;5116770;28;19908;-58
2022/04/20 04:21:33;;;;;;;;;;;;;;;;;;5116671;28;19904;-51
2022/04/20 04:23:59;;;;;;;;;;;;;;;;;;5116447;28;20342;-53
2022/04/20 04:26:27;;;;;;;;;;;;;;;;;;5116703;28;20277;-53
2022/04/20 04:28:54;;;;;;;;;;;;;;;;;;5116650;28;19954;-54
2022/04/20 04:31:20;;;;;;;;;;;;;;;;;;5116506;28;19952;-52
2022/04/20 04:33:47;;;;;;;;;;;;;;;;;;5115982;28;19911;-57
2022/04/20 04:36:13;;;;;;;;;;;;;;;;;;5116102;28;19908;-52
2022/04/20 04:38:40;;;;;;;;;;;;;;;;;;5116408;28;19955;-53
2022/04/20 04:41:06;;;;;;;;;;;;;;;;;;5116260;28;20011;-47
2022/04/20 04:43:33;;;;;;;;;;;;;;;;;;5116409;28;19920;-50
2022/04/20 04:48:48;;;;;;;;;;;;;;;;;;5116174;28;19915;-52
2022/04/20 04:51:15;;;;;;;;;;;;;;;;;;5116110;28;20254;-52
2022/04/20 04:53:41;;;;;;;;;;;;;;;;;;5116076;28;19966;-47
2022/04/20 04:56:08;;;;;;;;;;;;;;;;;;5116330;28;19908;-53
2022/04/20 04:58:34;;;;;;;;;;;;;;;;;;5115994;27;19930;-52
2022/04/20 05:01:00;;;;;;;;;;;;;;;;;;5116490;28;19914;-53
2022/04/20 05:03:27;;;;;;;;;;;;;;;;;;5116175;28;20251;-59
2022/04/20 05:05:54;;;;;;;;;;;;;;;;;;5115749;28;19920;-54
2022/04/20 05:08:20;;;;;;;;;;;;;;;;;;5115692;28;19908;-54
2022/04/20 05:10:47;;;;;;;;;;;;;;;;;;5115788;28;19911;-51
2022/04/20 05:13:14;;;;;;;;;;;;;;;;;;5114445;28;20408;-53
2022/04/20 05:15:40;;;;;;;;;;;;;;;;;;5115894;28;19912;-48
2022/04/20 05:18:07;;;;;;;;;;;;;;;;;;5116017;28;19951;-49
2022/04/20 05:20:34;;;;;;;;;;;;;;;;;;5115547;28;19908;-44
2022/04/20 05:23:00;;;;;;;;;;;;;;;;;;5115327;27;19915;-55
2022/04/20 05:25:30;;;;;;;;;;;;;;;;;;5114921;28;19939;-47
2022/04/20 05:27:56;;;;;;;;;;;;;;;;;;5115461;28;19969;-50
2022/04/20 05:30:23;;;;;;;;;;;;;;;;;;5115619;28;19915;-57
2022/04/20 05:32:49;;;;;;;;;;;;;;;;;;5115561;28;19908;-53
2022/04/20 05:35:15;;;;;;;;;;;;;;;;;;5114865;28;20010;-51
2022/04/20 05:43:11;;;;;;;;;;;;;;;;;;5115034;28;19968;-53
2022/04/20 05:45:38;;;;;;;;;;;;;;;;;;5115188;28;19918;-50
2022/04/20 05:48:04;;;;;;;;;;;;;;;;;;5114837;28;19912;-49
2022/04/20 05:50:31;;;;;;;;;;;;;;;;;;5114599;28;20238;-52
2022/04/20 05:52:57;;;;;;;;;;;;;;;;;;5114772;28;19908;-52
2022/04/20 05:55:24;;;;;;;;;;;;;;;;;;5115074;28;19908;-59
2022/04/20 05:57:50;;;;;;;;;;;;;;;;;;5114330;28;19940;-44
2022/04/20 06:00:17;;;;;;;;;;;;;;;;;;5114814;28;19907;-50
2022/04/20 06:02:43;;;;;;;;;;;;;;;;;;5115029;28;20262;-50
2022/04/20 06:05:10;;;;;;;;;;;;;;;;;;5114764;28;19935;-57
2022/04/20 06:07:36;;;;;;;;;;;;;;;;;;5114637;28;19934;-44
2022/04/20 06:10:03;;;;;;;;;;;;;;;;;;5114506;28;20332;-46
2022/04/20 06:12:30;;;;;;;;;;;;;;;;;;5115661;28;19998;-48
2022/04/20 06:14:56;;;;;;;;;;;;;;;;;;5113704;28;20311;-49
2022/04/20 06:17:23;;;;;;;;;;;;;;;;;;5114053;28;20375;-57
2022/04/20 06:19:49;;;;;;;;;;;;;;;;;;5114580;28;20370;-56
2022/04/20 06:22:16;;;;;;;;;;;;;;;;;;5114503;27;20053;-58
2022/04/20 06:24:42;;;;;;;;;;;;;;;;;;5114479;28;20393;-48
2022/04/20 06:27:09;;;;;;;;;;;;;;;;;;5114178;28;20380;-47
2022/04/20 06:29:35;;;;;;;;;;;;;;;;;;5114648;28;20286;-53
2022/04/20 06:32:02;;;;;;;;;;;;;;;;;;5114392;28;19926;-57
2022/04/20 06:34:28;;;;;;;;;;;;;;;;;;5113778;28;19914;-50
2022/04/20 06:36:55;;;;;;;;;;;;;;;;;;5113090;28;19961;-51
2022/04/20 06:39:21;;;;;;;;;;;;;;;;;;5113587;28;20352;-54
2022/04/20 06:41:48;;;;;;;;;;;;;;;;;;5113776;28;19908;-52
2022/04/20 06:44:15;;;;;;;;;;;;;;;;;;5113477;28;19923;-57
2022/04/20 06:46:41;;;;;;;;;;;;;;;;;;5113945;28;19995;-50
2022/04/20 06:49:07;;;;;;;;;;;;;;;;;;5113531;28;19908;-56
2022/04/20 06:59:51;;;;;;;;;;;;;;;;;;5113700;28;20459;-57
2022/04/20 07:02:17;;;;;;;;;;;;;;;;;;5113376;28;19962;-54
2022/04/20 07:04:43;;;;;;;;;;;;;;;;;;5113014;28;20015;-51
2022/04/20 07:07:10;;;;;;;;;;;;;;;;;;5113575;28;19915;-47
2022/04/20 07:09:36;;;;;;;;;;;;;;;;;;5113147;28;19919;-56
2022/04/20 07:12:03;;;;;;;;;;;;;;;;;;5113187;28;19908;-49
2022/04/20 07:14:29;;;;;;;;;;;;;;;;;;5113533;28;19918;-48
2022/04/20 07:16:56;;;;;;;;;;;;;;;;;;5113376;28;19937;-56
2022/04/20 07:19:22;;;;;;;;;;;;;;;;;;5112959;28;19917;-51
2022/04/20 07:21:49;;;;;;;;;;;;;;;;;;5112680;28;19908;-49
2022/04/20 07:24:15;;;;;;;;;;;;;;;;;;5113514;28;19915;-49
2022/04/20 07:26:42;;;;;;;;;;;;;;;;;;5113066;28;19908;-52
2022/04/20 07:29:08;;;;;;;;;;;;;;;;;;5112660;28;19908;-55
2022/04/20 07:31:34;;;;;;;;;;;;;;;;;;5113027;28;19986;-53
2022/04/20 07:34:01;;;;;;;;;;;;;;;;;;5113340;28;19908;-55
2022/04/20 07:36:28;;;;;;;;;;;;;;;;;;5093291;28;19908;-58
2022/04/20 07:38:55;;;;;;;;;;;;;;;;;;5092431;28;20023;-55
2022/04/20 07:41:21;;;;;;;;;;;;;;;;;;5092906;28;20374;-56
2022/04/20 07:43:49;;;;;;;;;;;;;;;;;;5092973;28;19958;-54
2022/04/20 07:46:17;;;;;;;;;;;;;;;;;;5092776;28;19920;-51
2022/04/20 07:48:44;;;;;;;;;;;;;;;;;;5098735;28;19908;-53
2022/04/20 07:51:11;;;;;;;;;;;;;;;;;;5112836;28;19911;-45
2022/04/20 07:53:37;;;;;;;;;;;;;;;;;;5113243;28;19969;-51
2022/04/20 07:56:03;;;;;;;;;;;;;;;;;;5111894;28;19953;-51
2022/04/20 07:58:30;;;;;;;;;;;;;;;;;;5112140;28;19915;-53
2022/04/20 08:00:57;;;;;;;;;;;;;;;;;;5112755;28;19912;-53
2022/04/20 08:03:24;;;;;;;;;;;;;;;;;;5111870;28;19922;-54
2022/04/20 08:05:50;;;;;;;;;;;;;;;;;;5112351;28;20052;-51
2022/04/20 08:08:17;;;;;;;;;;;;;;;;;;5102543;28;19920;-49
2022/04/20 08:10:43;;;;;;;;;;;;;;;;;;5091701;28;19951;-48
2022/04/20 08:15:57;;;;;;;;;;;;;;;;;;5091687;28;19919;-49
2022/04/20 08:18:23;;;;;;;;;;;;;;;;;;5091202;28;19908;-50
2022/04/20 08:20:50;;;;;;;;;;;;;;;;;;5092310;28;19999;-47
2022/04/20 08:23:16;;;;;;;;;;;;;;;;;;5091907;28;19969;-46
2022/04/20 08:25:43;;;;;;;;;;;;;;;;;;5092578;28;19934;-50
2022/04/20 08:28:09;;;;;;;;;;;;;;;;;;5106089;28;19918;-46
2022/04/20 08:30:36;;;;;;;;;;;;;;;;;;5111669;28;20374;-53
2022/04/20 08:33:06;;;;;;;;;;;;;;;;;;5111865;28;19908;-41
2022/04/20 08:35:32;;;;;;;;;;;;;;;;;;5112386;28;19910;-52
2022/04/20 08:37:58;;;;;;;;;;;;;;;;;;5112514;28;19907;-54
2022/04/20 08:40:25;;;;;;;;;;;;;;;;;;5112568;28;20269;-51
2022/04/20 08:42:51;;;;;;;;;;;;;;;;;;5112708;28;19907;-54
2022/04/20 08:45:18;;;;;;;;;;;;;;;;;;5112673;28;19915;-51
2022/04/20 08:47:45;;;;;;;;;;;;;;;;;;5112736;28;19914;-41
2022/04/20 08:50:12;;;;;;;;;;;;;;;;;;5099585;28;19954;-49
2022/04/20 08:52:38;;;;;;;;;;;;;;;;;;5093355;28;19923;-53
2022/04/20 08:55:05;;;;;;;;;;;;;;;;;;5092354;28;19915;-50
2022/04/20 08:57:31;;;;;;;;;;;;;;;;;;5093420;28;19908;-47
2022/04/20 08:59:58;;;;;;;;;;;;;;;;;;5094443;28;19908;-42
2022/04/20 09:02:24;;;;;;;;;;;;;;;;;;5096698;28;19915;-42
2022/04/20 09:04:51;;;;;;;;;;;;;;;;;;5094998;28;19962;-46
2022/04/20 09:07:18;;;;;;;;;;;;;;;;;;5096523;28;19905;-45
2022/04/20 09:09:44;;;;;;;;;;;;;;;;;;5095123;28;20266;-45
2022/04/20 09:12:11;;;;;;;;;;;;;;;;;;5095421;28;19908;-45
2022/04/20 09:14:38;;;;;;;;;;;;;;;;;;5095560;28;19910;-48
2022/04/20 09:17:05;;;;;;;;;;;;;;;;;;5095487;28;20372;-47
2022/04/20 09:19:31;;;;;;;;;;;;;;;;;;5095566;28;19911;-46
2022/04/20 09:21:57;;;;;;;;;;;;;;;;;;5095378;28;19958;-49
2022/04/20 09:24:24;;;;;;;;;;;;;;;;;;5095391;28;20049;-44
2022/04/20 09:26:51;;;;;;;;;;;;;;;;;;5095616;28;19922;-50
2022/04/20 09:29:17;;;;;;;;;;;;;;;;;;5095117;28;19904;-44
2022/04/20 09:31:44;;;;;;;;;;;;;;;;;;5095286;28;19914;-46
2022/04/20 09:34:11;;;;;;;;;;;;;;;;;;5112683;28;19954;-45
2022/04/20 09:36:37;;;;;;;;;;;;;;;;;;5115899;28;19957;-46
2022/04/20 09:39:03;;;;;;;;;;;;;;;;;;5115792;28;20003;-49
2022/04/20 09:41:30;;;;;;;;;;;;;;;;;;5098287;28;20006;-52
2022/04/20 09:43:56;;;;;;;;;;;;;;;;;;5094533;28;20285;-44
2022/04/20 09:49:07;;;;;;;;;;;;;;;;;;5094720;28;19934;-45
2022/04/20 09:51:34;;;;;;;;;;;;;;;;;;5102687;28;19958;-47
2022/04/20 09:54:00;;;;;;;;;;;;;;;;;;5115512;28;19915;-51
2022/04/20 09:56:27;;;;;;;;;;;;;;;;;;5115163;28;19950;-46
2022/04/20 09:58:54;;;;;;;;;;;;;;;;;;5115160;28;19914;-48
2022/04/20 10:01:20;;;;;;;;;;;;;;;;;;5115167;28;19915;-48
2022/04/20 10:03:47;;;;;;;;;;;;;;;;;;5114721;27;19926;-49
2022/04/20 10:06:13;;;;;;;;;;;;;;;;;;5115346;28;19918;-48
2022/04/20 10:08:40;;;;;;;;;;;;;;;;;;5115431;28;20004;-54
2022/04/20 10:11:06;;;;;;;;;;;;;;;;;;5113850;27;20362;-49
2022/04/20 10:13:33;;;;;;;;;;;;;;;;;;5115291;28;19923;-52
2022/04/20 10:16:05;;;;;;;;;;;;;;;;;;5115258;28;20006;-55
2022/04/20 10:18:32;;;;;;;;;;;;;;;;;;5106765;28;19931;-53
2022/04/20 10:20:59;;;;;;;;;;;;;;;;;;5094440;28;20445;-53
2022/04/20 10:23:25;;;;;;;;;;;;;;;;;;5093866;28;19916;-49
2022/04/20 10:25:52;;;;;;;;;;;;;;;;;;5102805;28;19954;-52
2022/04/20 10:28:18;;;;;;;;;;;;;;;;;;5114641;28;19919;-53
2022/04/20 10:30:45;;;;;;;;;;;;;;;;;;5114876;28;20315;-46
2022/04/20 10:33:11;;;;;;;;;;;;;;;;;;5114225;28;19908;-47
2022/04/20 10:35:38;;;;;;;;;;;;;;;;;;5114828;28;19911;-55
2022/04/20 10:38:04;;;;;;;;;;;;;;;;;;5115227;28;19915;-53
2022/04/20 10:40:31;;;;;;;;;;;;;;;;;;5114078;28;19908;-57
2022/04/20 10:42:57;;;;;;;;;;;;;;;;;;5114209;28;19922;-47
2022/04/20 10:45:23;;;;;;;;;;;;;;;;;;5114057;28;19951;-55
2022/04/20 10:47:50;;;;;;;;;;;;;;;;;;5114107;28;19961;-52
2022/04/20 10:50:16;;;;;;;;;;;;;;;;;;5114097;28;20365;-54
2022/04/20 10:52:44;;;;;;;;;;;;;;;;;;5113950;28;19947;-46
2022/04/20 10:55:11;;;;;;;;;;;;;;;;;;5114155;28;20397;-56
2022/04/20 10:57:37;;;;;;;;;;;;;;;;;;5114066;28;20002;-48
2022/04/20 11:00:04;;;;;;;;;;;;;;;;;;5114184;28;19911;-52
2022/04/20 11:02:30;;;;;;;;;;;;;;;;;;5112528;28;20263;-54
2022/04/20 11:04:57;;;;;;;;;;;;;;;;;;5113841;28;20297;-52
2022/04/20 11:07:26;;;;;;;;;;;;;;;;;;5105516;28;19968;-49
2022/04/20 11:09:53;;;;;;;;;;;;;;;;;;5093116;28;19909;-50
2022/04/20 11:20:33;;;;;;;;;;;;;;;;;;5093136;28;19981;-50
2022/04/20 11:23:00;;;;;;;;;;;;;;;;;;5091298;28;20019;-52
2022/04/20 11:25:26;;;;;;;;;;;;;;;;;;5093217;28;19912;-54
2022/04/20 11:27:53;;;;;;;;;;;;;;;;;;5102273;28;20350;-53
2022/04/20 11:30:19;;;;;;;;;;;;;;;;;;5113752;28;20419;-54
2022/04/20 11:32:46;;;;;;;;;;;;;;;;;;5113630;28;20080;-49
2022/04/20 11:35:12;;;;;;;;;;;;;;;;;;5113551;28;19912;-50
2022/04/20 11:37:39;;;;;;;;;;;;;;;;;;5113494;28;19908;-54
2022/04/20 11:40:06;;;;;;;;;;;;;;;;;;5113547;28;20277;-51
2022/04/20 11:42:32;;;;;;;;;;;;;;;;;;5113435;28;19919;-51
2022/04/20 11:45:00;;;;;;;;;;;;;;;;;;5113573;28;19951;-47
2022/04/20 11:47:27;;;;;;;;;;;;;;;;;;5112928;28;19981;-55
2022/04/20 11:49:54;;;;;;;;;;;;;;;;;;5113521;28;19912;-56
2022/04/20 11:52:21;;;;;;;;;;;;;;;;;;5113265;28;19919;-50
2022/04/20 11:54:47;;;;;;;;;;;;;;;;;;5113254;28;20366;-53
2022/04/20 11:57:15;;;;;;;;;;;;;;;;;;5113012;28;19923;-53
2022/04/20 11:59:42;;;;;;;;;;;;;;;;;;5113237;28;19942;-47
2022/04/20 12:02:11;;;;;;;;;;;;;;;;;;5113436;28;19946;-48
2022/04/20 12:04:39;;;;;;;;;;;;;;;;;;5113204;28;19924;-58
2022/04/20 12:07:05;;;;;;;;;;;;;;;;;;5113428;28;19908;-54
2022/04/20 12:09:32;;;;;;;;;;;;;;;;;;5113107;28;19973;-53
2022/04/20 12:11:58;;;;;;;;;;;;;;;;;;5113078;28;19908;-52
2022/04/20 12:14:25;;;;;;;;;;;;;;;;;;5112973;28;19915;-55
2022/04/20 12:16:55;;;;;;;;;;;;;;;;;;5113217;28;19915;-57
2022/04/20 12:19:22;;;;;;;;;;;;;;;;;;5112926;28;19908;-56
2022/04/20 12:21:49;;;;;;;;;;;;;;;;;;5112802;28;19908;-55
2022/04/20 12:24:15;;;;;;;;;;;;;;;;;;5112922;28;19916;-49
2022/04/20 12:26:42;;;;;;;;;;;;;;;;;;5113230;28;19908;-54
2022/04/20 12:29:08;;;;;;;;;;;;;;;;;;5113259;28;19956;-48
2022/04/20 12:31:37;;;;;;;;;;;;;;;;;;5113081;28;19912;-53
2022/04/20 12:34:04;;;;;;;;;;;;;;;;;;5113281;28;20310;-54
2022/04/20 12:36:31;;;;;;;;;;;;;;;;;;5116889;28;19939;-52
2022/04/20 12:38:57;;;;;;;;;;;;;;;;;;5117047;28;19968;-55
2022/04/20 12:41:24;;;;;;;;;;;;;;;;;;5116459;28;19908;-51
2022/04/20 12:43:50;;;;;;;;;;;;;;;;;;5116917;28;19916;-50
2022/04/20 12:46:17;;;;;;;;;;;;;;;;;;5116843;28;19912;-51
2022/04/20 12:48:43;;;;;;;;;;;;;;;;;;5116680;28;19908;-55
2022/04/20 12:51:10;;;;;;;;;;;;;;;;;;5117025;28;19908;-50
2022/04/20 12:53:38;;;;;;;;;;;;;;;;;;5116657;28;19912;-55
2022/04/20 13:04:19;;;;;;;;;;;;;;;;;;5116349;28;20057;-58
2022/04/20 13:06:45;;;;;;;;;;;;;;;;;;5116786;28;19904;-55
2022/04/20 13:09:15;;;;;;;;;;;;;;;;;;5116210;28;19908;-48
2022/04/20 13:11:41;;;;;;;;;;;;;;;;;;5116183;28;20311;-48
2022/04/20 13:14:09;;;;;;;;;;;;;;;;;;5116820;28;20256;-54
2022/04/20 13:16:35;;;;;;;;;;;;;;;;;;5116338;28;19907;-53
2022/04/20 13:19:02;;;;;;;;;;;;;;;;;;5116381;28;20376;-49
2022/04/20 13:21:29;;;;;;;;;;;;;;;;;;5115193;28;19912;-44
2022/04/20 13:23:56;;;;;;;;;;;;;;;;;;5115995;28;20028;-44
2022/04/20 13:29:07;;;;;;;;;;;;;;;;;;5116217;28;19930;-54
2022/04/20 13:31:33;;;;;;;;;;;;;;;;;;5116589;28;19908;-52
2022/04/20 13:34:00;;;;;;;;;;;;;;;;;;5116194;28;19958;-47
2022/04/20 13:36:27;;;;;;;;;;;;;;;;;;5115642;28;20331;-53
2022/04/20 13:38:53;;;;;;;;;;;;;;;;;;5116216;28;19958;-54
2022/04/20 13:41:20;;;;;;;;;;;;;;;;;;5115747;28;19904;-52
2022/04/20 13:43:46;;;;;;;;;;;;;;;;;;5115912;27;19969;-48
2022/04/20 13:46:13;;;;;;;;;;;;;;;;;;5115682;28;19911;-53
2022/04/20 13:48:41;;;;;;;;;;;;;;;;;;5096752;28;19952;-54
2022/04/20 13:51:07;;;;;;;;;;;;;;;;;;5095131;28;19919;-52
2022/04/20 13:53:34;;;;;;;;;;;;;;;;;;5111355;28;19939;-51
2022/04/20 13:56:00;;;;;;;;;;;;;;;;;;5115652;28;19908;-51
2022/04/20 13:58:27;;;;;;;;;;;;;;;;;;5115332;28;19911;-50
2022/04/20 14:00:55;;;;;;;;;;;;;;;;;;5115336;28;20354;-50
2022/04/20 14:03:21;;;;;;;;;;;;;;;;;;5115074;28;19912;-50
2022/04/20 14:05:48;;;;;;;;;;;;;;;;;;5115484;28;19973;-50
2022/04/20 14:08:14;;;;;;;;;;;;;;;;;;5115593;28;20282;-55
2022/04/20 14:10:40;;;;;;;;;;;;;;;;;;5115275;28;19914;-48
2022/04/20 14:13:08;;;;;;;;;;;;;;;;;;5115615;28;19957;-46
2022/04/20 14:15:35;;;;;;;;;;;;;;;;;;5115520;28;19919;-49
2022/04/20 14:18:01;;;;;;;;;;;;;;;;;;5115158;28;19952;-50
2022/04/20 14:20:27;;;;;;;;;;;;;;;;;;5115772;28;20254;-51
2022/04/20 14:22:54;;;;;;;;;;;;;;;;;;5115665;28;20315;-50
2022/04/20 14:33:34;;;;;;;;;;;;;;;;;;5095003;28;19915;-55
2022/04/20 14:36:01;;;;;;;;;;;;;;;;;;5094848;28;19960;-53
2022/04/20 14:38:27;;;;;;;;;;;;;;;;;;5094730;28;20282;-52
2022/04/20 14:40:54;;;;;;;;;;;;;;;;;;5094452;28;19915;-54
2022/04/20 14:43:22;;;;;;;;;;;;;;;;;;5092937;28;20259;-55
2022/04/20 14:45:49;;;;;;;;;;;;;;;;;;5094605;28;20399;-53
2022/04/20 14:48:15;;;;;;;;;;;;;;;;;;5110723;28;19915;-46
2022/04/20 14:50:43;;;;;;;;;;;;;;;;;;5114982;28;20409;-55
2022/04/20 14:53:10;;;;;;;;;;;;;;;;;;5114379;28;19908;-54
2022/04/20 14:55:37;;;;;;;;;;;;;;;;;;5114797;28;19935;-56
2022/04/20 14:58:04;;;;;;;;;;;;;;;;;;5114008;28;20002;-54
2022/04/20 15:00:30;;;;;;;;;;;;;;;;;;5114344;28;19908;-56
2022/04/20 15:02:57;;;;;;;;;;;;;;;;;;5114740;27;20262;-55
2022/04/20 15:05:23;;;;;;;;;;;;;;;;;;5113962;28;19924;-55
2022/04/20 15:07:51;;;;;;;;;;;;;;;;;;5114509;28;19969;-49
2022/04/20 15:10:18;;;;;;;;;;;;;;;;;;5114116;28;20369;-54
2022/04/20 15:12:46;;;;;;;;;;;;;;;;;;5114577;28;19953;-56
2022/04/20 15:15:14;;;;;;;;;;;;;;;;;;5114091;28;19904;-53
2022/04/20 15:17:40;;;;;;;;;;;;;;;;;;5114427;28;19932;-53
2022/04/20 15:20:07;;;;;;;;;;;;;;;;;;5112323;28;19919;-56
2022/04/20 15:22:33;;;;;;;;;;;;;;;;;;5114704;28;19908;-54
2022/04/20 15:25:00;;;;;;;;;;;;;;;;;;5114204;28;19916;-56
2022/04/20 15:27:26;;;;;;;;;;;;;;;;;;5113513;28;19911;-55
2022/04/20 15:29:53;;;;;;;;;;;;;;;;;;5114237;28;19908;-59
2022/04/20 15:32:19;;;;;;;;;;;;;;;;;;5114271;28;19908;-54
2022/04/20 15:34:46;;;;;;;;;;;;;;;;;;5113851;28;20009;-56
2022/04/20 15:37:12;;;;;;;;;;;;;;;;;;5113737;28;19934;-55
2022/04/20 15:39:39;;;;;;;;;;;;;;;;;;5113976;28;20418;-52
2022/04/20 15:42:05;;;;;;;;;;;;;;;;;;5114588;28;20315;-50
2022/04/20 15:44:32;;;;;;;;;;;;;;;;;;5113190;28;19915;-56
2022/04/20 15:46:59;;;;;;;;;;;;;;;;;;5113930;28;19961;-50
2022/04/20 15:49:26;;;;;;;;;;;;;;;;;;5113571;28;19907;-53
2022/04/20 15:51:52;;;;;;;;;;;;;;;;;;5113328;28;19908;-51
2022/04/20 15:54:19;;;;;;;;;;;;;;;;;;5113954;28;19946;-49
2022/04/20 16:02:15;;;;;;;;;;;;;;;;;;5113652;28;20405;-50
2022/04/20 16:04:41;;;;;;;;;;;;;;;;;;5093304;28;19963;-52
2022/04/20 16:07:08;;;;;;;;;;;;;;;;;;5093216;28;19935;-58
2022/04/20 16:09:34;;;;;;;;;;;;;;;;;;5113251;28;20259;-53
2022/04/20 16:12:01;;;;;;;;;;;;;;;;;;5118089;28;19915;-54
2022/04/20 16:14:27;;;;;;;;;;;;;;;;;;5118074;28;19908;-53
2022/04/20 16:16:54;;;;;;;;;;;;;;;;;;5117899;28;19908;-53
2022/04/20 16:19:20;;;;;;;;;;;;;;;;;;5117581;28;19907;-57
2022/04/20 16:21:47;;;;;;;;;;;;;;;;;;5117355;28;19912;-54
2022/04/20 16:24:13;;;;;;;;;;;;;;;;;;5117803;28;20012;-51
2022/04/20 16:26:40;;;;;;;;;;;;;;;;;;5117267;28;19915;-53
2022/04/20 16:29:06;;;;;;;;;;;;;;;;;;5117533;28;19907;-57
2022/04/20 16:31:33;;;;;;;;;;;;;;;;;;5117469;28;19908;-50
2022/04/20 16:33:59;;;;;;;;;;;;;;;;;;5117290;28;19907;-53
2022/04/20 16:36:26;;;;;;;;;;;;;;;;;;5117464;28;19908;-54
2022/04/20 16:38:52;;;;;;;;;;;;;;;;;;5117342;28;19977;-56
2022/04/20 16:41:19;;;;;;;;;;;;;;;;;;5116985;28;19957;-51
2022/04/20 16:43:45;;;;;;;;;;;;;;;;;;5117474;28;19961;-55
2022/04/20 16:46:12;;;;;;;;;;;;;;;;;;5117603;28;19955;-51
2022/04/20 16:48:38;;;;;;;;;;;;;;;;;;5116976;28;20000;-53
2022/04/20 16:51:08;;;;;;;;;;;;;;;;;;5117129;28;19911;-48
2022/04/20 16:53:35;;;;;;;;;;;;;;;;;;5117043;28;19952;-52
2022/04/20 16:56:01;;;;;;;;;;;;;;;;;;5117132;28;19908;-52
2022/04/20 16:58:28;;;;;;;;;;;;;;;;;;5104260;28;19908;-55
2022/04/20 17:00:54;;;;;;;;;;;;;;;;;;5096591;28;19915;-50
2022/04/20 17:03:21;;;;;;;;;;;;;;;;;;5096255;28;19916;-55
2022/04/20 17:05:48;;;;;;;;;;;;;;;;;;5100135;28;19924;-57
2022/04/20 17:08:15;;;;;;;;;;;;;;;;;;5116875;28;20254;-50
2022/04/20 17:10:41;;;;;;;;;;;;;;;;;;5116597;28;19908;-51
2022/04/20 17:13:08;;;;;;;;;;;;;;;;;;5116422;28;19934;-56
2022/04/20 17:15:34;;;;;;;;;;;;;;;;;;5116689;28;19943;-57
2022/04/20 17:18:00;;;;;;;;;;;;;;;;;;5116696;28;19911;-54
2022/04/20 17:28:42;;;;;;;;;;;;;;;;;;5116502;28;19953;-51
2022/04/20 17:31:08;;;;;;;;;;;;;;;;;;5116338;28;19943;-55
2022/04/20 17:33:35;;;;;;;;;;;;;;;;;;5116277;28;19914;-55
2022/04/20 17:38:46;;;;;;;;;;;;;;;;;;5116413;28;19915;-49
2022/04/20 17:41:13;;;;;;;;;;;;;;;;;;5115694;28;20356;-55
2022/04/20 17:43:39;;;;;;;;;;;;;;;;;;5116084;28;19999;-52
2022/04/20 17:46:06;;;;;;;;;;;;;;;;;;5116178;28;20357;-52
2022/04/20 17:48:32;;;;;;;;;;;;;;;;;;5115722;27;20320;-54
2022/04/20 17:50:59;;;;;;;;;;;;;;;;;;5116343;28;20239;-54
2022/04/20 17:53:26;;;;;;;;;;;;;;;;;;5115759;28;19911;-55